sensor_id;sensor_type;location;lat;lon;timestamp;temperature;humidity
20231;DHT22;10274;49.022;9.338;2023-05-07T00:00:53;11.20;99.90
20231;DHT22;10274;49.022;9.338;2023-05-07T00:03:21;11.20;99.90
20231;DHT22;10274;49.022;9.338;2023-05-07T00:05:48;11.20;99.90
20231;DHT22;10274;49.022;9.338;2023-05-07T00:08:15;11.20;99.90
20231;DHT22;10274;49.022;9.338;2023-05-07T00:10:41;11.40;99.90
20231;DHT22;10274;49.022;9.338;2023-05-07T00:13:08;11.50;99.90
20231;DHT22;10274;49.022;9.338;2023-05-07T00:15:35;11.60;99.90
20231;DHT22;10274;49.022;9.338;2023-05-07T00:18:02;11.50;99.90
20231;DHT22;10274;49.022;9.338;2023-05-07T00:20:30;11.50;99.90
20231;DHT22;10274;49.022;9.338;2023-05-07T00:22:56;11.60;99.90
20231;DHT22;10274;49.022;9.338;2023-05-07T00:25:23;11.60;99.90
20231;DHT22;10274;49.022;9.338;2023-05-07T00:27:50;11.60;99.90
20231;DHT22;10274;49.022;9.338;2023-05-07T00:30:17;11.70;99.90
20231;DHT22;10274;49.022;9.338;2023-05-07T00:32:43;11.80;99.90
20231;DHT22;10274;49.022;9.338;2023-05-07T00:35:11;11.80;99.90
20231;DHT22;10274;49.022;9.338;2023-05-07T00:37:39;11.70;99.90
20231;DHT22;10274;49.022;9.338;2023-05-07T00:40:07;11.30;99.90
20231;DHT22;10274;49.022;9.338;2023-05-07T00:42:34;11.30;99.90
20231;DHT22;10274;49.022;9.338;2023-05-07T00:45:00;11.40;99.90
20231;DHT22;10274;49.022;9.338;2023-05-07T00:47:28;11.50;99.90
20231;DHT22;10274;49.022;9.338;2023-05-07T00:49:55;11.60;99.90
20231;DHT22;10274;49.022;9.338;2023-05-07T00:52:25;11.70;99.90
20231;DHT22;10274;49.022;9.338;2023-05-07T00:54:54;11.50;99.90
20231;DHT22;10274;49.022;9.338;2023-05-07T00:57:21;11.30;99.90
20231;DHT22;10274;49.022;9.338;2023-05-07T00:59:49;11.10;99.90
20231;DHT22;10274;49.022;9.338;2023-05-07T01:02:17;11.10;99.90
20231;DHT22;10274;49.022;9.338;2023-05-07T01:04:43;11.20;99.90
20231;DHT22;10274;49.022;9.338;2023-05-07T01:07:11;11.30;99.90
20231;DHT22;10274;49.022;9.338;2023-05-07T01:09:37;11.30;99.90
20231;DHT22;10274;49.022;9.338;2023-05-07T01:12:06;11.30;99.90
20231;DHT22;10274;49.022;9.338;2023-05-07T01:14:34;11.20;99.90
20231;DHT22;10274;49.022;9.338;2023-05-07T01:17:01;11.10;99.90
20231;DHT22;10274;49.022;9.338;2023-05-07T01:19:29;11.10;99.90
20231;DHT22;10274;49.022;9.338;2023-05-07T01:22:01;11.20;99.90
20231;DHT22;10274;49.022;9.338;2023-05-07T01:24:31;11.20;99.90
20231;DHT22;10274;49.022;9.338;2023-05-07T01:26:58;11.30;99.90
20231;DHT22;10274;49.022;9.338;2023-05-07T01:29:27;11.20;99.90
20231;DHT22;10274;49.022;9.338;2023-05-07T01:31:53;11.10;99.90
20231;DHT22;10274;49.022;9.338;2023-05-07T01:34:21;11.00;99.90
20231;DHT22;10274;49.022;9.338;2023-05-07T01:36:48;10.90;99.90
20231;DHT22;10274;49.022;9.338;2023-05-07T01:39:16;10.90;99.90
20231;DHT22;10274;49.022;9.338;2023-05-07T01:41:45;11.10;99.90
20231;DHT22;10274;49.022;9.338;2023-05-07T01:44:13;11.00;99.90
20231;DHT22;10274;49.022;9.338;2023-05-07T01:46:40;11.00;99.90
20231;DHT22;10274;49.022;9.338;2023-05-07T01:49:06;11.00;99.90
20231;DHT22;10274;49.022;9.338;2023-05-07T01:51:33;11.00;99.90
20231;DHT22;10274;49.022;9.338;2023-05-07T01:54:00;11.10;99.90
20231;DHT22;10274;49.022;9.338;2023-05-07T01:56:27;10.90;99.90
20231;DHT22;10274;49.022;9.338;2023-05-07T01:58:55;10.80;99.90
20231;DHT22;10274;49.022;9.338;2023-05-07T02:01:22;10.80;99.90
20231;DHT22;10274;49.022;9.338;2023-05-07T02:03:48;10.90;99.90
20231;DHT22;10274;49.022;9.338;2023-05-07T02:06:15;11.00;99.90
20231;DHT22;10274;49.022;9.338;2023-05-07T02:08:42;11.00;99.90
20231;DHT22;10274;49.022;9.338;2023-05-07T02:11:08;11.00;99.90
20231;DHT22;10274;49.022;9.338;2023-05-07T02:13:35;10.90;99.90
20231;DHT22;10274;49.022;9.338;2023-05-07T02:16:04;10.80;99.90
20231;DHT22;10274;49.022;9.338;2023-05-07T02:18:31;10.80;99.90
20231;DHT22;10274;49.022;9.338;2023-05-07T02:20:58;10.80;99.90
20231;DHT22;10274;49.022;9.338;2023-05-07T02:23:25;10.80;99.90
20231;DHT22;10274;49.022;9.338;2023-05-07T02:25:51;10.90;99.90
20231;DHT22;10274;49.022;9.338;2023-05-07T02:28:18;11.00;99.90
20231;DHT22;10274;49.022;9.338;2023-05-07T02:30:45;10.80;99.90
20231;DHT22;10274;49.022;9.338;2023-05-07T02:33:13;10.80;99.90
20231;DHT22;10274;49.022;9.338;2023-05-07T02:35:39;10.60;99.90
20231;DHT22;10274;49.022;9.338;2023-05-07T02:38:06;10.50;99.90
20231;DHT22;10274;49.022;9.338;2023-05-07T02:40:36;10.50;99.90
20231;DHT22;10274;49.022;9.338;2023-05-07T02:43:04;10.50;99.90
20231;DHT22;10274;49.022;9.338;2023-05-07T02:45:30;10.60;99.90
20231;DHT22;10274;49.022;9.338;2023-05-07T02:47:57;10.70;99.90
20231;DHT22;10274;49.022;9.338;2023-05-07T02:50:25;10.90;99.90
20231;DHT22;10274;49.022;9.338;2023-05-07T02:52:52;10.90;99.90
20231;DHT22;10274;49.022;9.338;2023-05-07T02:55:19;10.90;99.90
20231;DHT22;10274;49.022;9.338;2023-05-07T02:57:45;10.90;99.90
20231;DHT22;10274;49.022;9.338;2023-05-07T03:00:13;11.00;99.90
20231;DHT22;10274;49.022;9.338;2023-05-07T03:02:41;11.00;99.90
20231;DHT22;10274;49.022;9.338;2023-05-07T03:05:08;10.70;99.90
20231;DHT22;10274;49.022;9.338;2023-05-07T03:07:36;10.50;99.90
20231;DHT22;10274;49.022;9.338;2023-05-07T03:10:04;10.50;99.90
20231;DHT22;10274;49.022;9.338;2023-05-07T03:12:31;10.60;99.90
20231;DHT22;10274;49.022;9.338;2023-05-07T03:14:58;10.60;99.90
20231;DHT22;10274;49.022;9.338;2023-05-07T03:17:24;10.30;99.90
20231;DHT22;10274;49.022;9.338;2023-05-07T03:19:51;10.20;99.90
20231;DHT22;10274;49.022;9.338;2023-05-07T03:22:18;10.30;99.90
20231;DHT22;10274;49.022;9.338;2023-05-07T03:24:46;10.40;99.90
20231;DHT22;10274;49.022;9.338;2023-05-07T03:27:12;10.50;99.90
20231;DHT22;10274;49.022;9.338;2023-05-07T03:29:39;10.40;99.90
20231;DHT22;10274;49.022;9.338;2023-05-07T03:32:06;10.40;99.90
20231;DHT22;10274;49.022;9.338;2023-05-07T03:34:32;10.50;99.90
20231;DHT22;10274;49.022;9.338;2023-05-07T03:36:59;10.50;99.90
20231;DHT22;10274;49.022;9.338;2023-05-07T03:39:26;10.50;99.90
20231;DHT22;10274;49.022;9.338;2023-05-07T03:41:54;10.60;99.90
20231;DHT22;10274;49.022;9.338;2023-05-07T03:44:21;10.50;99.90
20231;DHT22;10274;49.022;9.338;2023-05-07T03:46:47;10.30;99.90
20231;DHT22;10274;49.022;9.338;2023-05-07T03:49:14;10.20;99.90
20231;DHT22;10274;49.022;9.338;2023-05-07T03:51:41;10.10;99.90
20231;DHT22;10274;49.022;9.338;2023-05-07T03:54:07;10.40;99.90
20231;DHT22;10274;49.022;9.338;2023-05-07T03:56:34;10.50;99.90
20231;DHT22;10274;49.022;9.338;2023-05-07T03:59:02;10.50;99.90
20231;DHT22;10274;49.022;9.338;2023-05-07T04:01:29;10.50;99.90
20231;DHT22;10274;49.022;9.338;2023-05-07T04:03:56;10.60;99.90
20231;DHT22;10274;49.022;9.338;2023-05-07T04:06:22;10.50;99.90
20231;DHT22;10274;49.022;9.338;2023-05-07T04:08:49;10.40;99.90
20231;DHT22;10274;49.022;9.338;2023-05-07T04:11:16;10.30;99.90
20231;DHT22;10274;49.022;9.338;2023-05-07T04:13:43;10.20;99.90
20231;DHT22;10274;49.022;9.338;2023-05-07T04:16:11;10.00;99.90
20231;DHT22;10274;49.022;9.338;2023-05-07T04:18:37;10.00;99.90
20231;DHT22;10274;49.022;9.338;2023-05-07T04:21:04;10.00;99.90
20231;DHT22;10274;49.022;9.338;2023-05-07T04:23:31;9.90;99.90
20231;DHT22;10274;49.022;9.338;2023-05-07T04:25:57;10.00;99.90
20231;DHT22;10274;49.022;9.338;2023-05-07T04:28:24;10.00;99.90
20231;DHT22;10274;49.022;9.338;2023-05-07T04:30:51;10.20;99.90
20231;DHT22;10274;49.022;9.338;2023-05-07T04:33:19;10.20;99.90
20231;DHT22;10274;49.022;9.338;2023-05-07T04:35:46;10.20;99.90
20231;DHT22;10274;49.022;9.338;2023-05-07T04:38:12;10.20;99.90
20231;DHT22;10274;49.022;9.338;2023-05-07T04:40:39;10.30;99.90
20231;DHT22;10274;49.022;9.338;2023-05-07T04:43:06;10.30;99.90
20231;DHT22;10274;49.022;9.338;2023-05-07T04:45:34;10.20;99.90
20231;DHT22;10274;49.022;9.338;2023-05-07T04:48:01;10.10;99.90
20231;DHT22;10274;49.022;9.338;2023-05-07T04:50:29;10.20;99.90
20231;DHT22;10274;49.022;9.338;2023-05-07T04:52:56;10.40;99.90
20231;DHT22;10274;49.022;9.338;2023-05-07T04:55:23;10.40;99.90
20231;DHT22;10274;49.022;9.338;2023-05-07T04:57:50;10.50;99.90
20231;DHT22;10274;49.022;9.338;2023-05-07T05:00:16;10.50;99.90
20231;DHT22;10274;49.022;9.338;2023-05-07T05:02:44;10.50;99.90
20231;DHT22;10274;49.022;9.338;2023-05-07T05:05:11;10.70;99.90
20231;DHT22;10274;49.022;9.338;2023-05-07T05:07:39;10.80;99.90
20231;DHT22;10274;49.022;9.338;2023-05-07T05:10:06;10.80;99.90
20231;DHT22;10274;49.022;9.338;2023-05-07T05:12:33;10.90;99.90
20231;DHT22;10274;49.022;9.338;2023-05-07T05:14:59;11.00;99.90
20231;DHT22;10274;49.022;9.338;2023-05-07T05:17:26;11.10;99.90
20231;DHT22;10274;49.022;9.338;2023-05-07T05:19:53;11.00;99.90
20231;DHT22;10274;49.022;9.338;2023-05-07T05:22:19;11.20;99.90
20231;DHT22;10274;49.022;9.338;2023-05-07T05:24:47;11.30;99.90
20231;DHT22;10274;49.022;9.338;2023-05-07T05:27:14;11.50;99.90
20231;DHT22;10274;49.022;9.338;2023-05-07T05:29:41;11.60;99.90
20231;DHT22;10274;49.022;9.338;2023-05-07T05:32:07;11.80;99.90
20231;DHT22;10274;49.022;9.338;2023-05-07T05:34:34;11.80;99.90
20231;DHT22;10274;49.022;9.338;2023-05-07T05:37:01;11.90;99.90
20231;DHT22;10274;49.022;9.338;2023-05-07T05:39:27;12.00;99.90
20231;DHT22;10274;49.022;9.338;2023-05-07T05:41:56;12.00;99.90
20231;DHT22;10274;49.022;9.338;2023-05-07T05:44:22;12.00;99.90
20231;DHT22;10274;49.022;9.338;2023-05-07T05:46:49;12.00;99.90
20231;DHT22;10274;49.022;9.338;2023-05-07T05:49:16;11.90;99.90
20231;DHT22;10274;49.022;9.338;2023-05-07T05:51:42;11.90;99.90
20231;DHT22;10274;49.022;9.338;2023-05-07T05:54:09;12.00;99.90
20231;DHT22;10274;49.022;9.338;2023-05-07T05:56:36;12.20;99.90
20231;DHT22;10274;49.022;9.338;2023-05-07T05:59:04;12.20;99.90
20231;DHT22;10274;49.022;9.338;2023-05-07T06:01:31;12.30;99.90
20231;DHT22;10274;49.022;9.338;2023-05-07T06:03:58;12.30;99.90
20231;DHT22;10274;49.022;9.338;2023-05-07T06:06:25;12.40;99.90
20231;DHT22;10274;49.022;9.338;2023-05-07T06:08:52;12.60;99.90
20231;DHT22;10274;49.022;9.338;2023-05-07T06:11:19;12.70;99.90
20231;DHT22;10274;49.022;9.338;2023-05-07T06:13:46;12.70;99.90
20231;DHT22;10274;49.022;9.338;2023-05-07T06:16:14;12.80;99.90
20231;DHT22;10274;49.022;9.338;2023-05-07T06:18:41;12.80;99.90
20231;DHT22;10274;49.022;9.338;2023-05-07T06:21:07;12.90;99.90
20231;DHT22;10274;49.022;9.338;2023-05-07T06:23:34;13.00;99.90
20231;DHT22;10274;49.022;9.338;2023-05-07T06:26:01;13.20;99.90
20231;DHT22;10274;49.022;9.338;2023-05-07T06:28:27;13.40;99.90
20231;DHT22;10274;49.022;9.338;2023-05-07T06:31:06;13.70;97.60
20231;DHT22;10274;49.022;9.338;2023-05-07T06:33:38;14.00;48.50
20231;DHT22;10274;49.022;9.338;2023-05-07T06:36:05;14.30;45.30
20231;DHT22;10274;49.022;9.338;2023-05-07T06:38:32;14.60;35.10
20231;DHT22;10274;49.022;9.338;2023-05-07T06:40:59;14.70;1.00
20231;DHT22;10274;49.022;9.338;2023-05-07T06:43:25;15.10;1.00
20231;DHT22;10274;49.022;9.338;2023-05-07T06:45:52;15.50;1.00
20231;DHT22;10274;49.022;9.338;2023-05-07T06:48:19;15.70;1.00
20231;DHT22;10274;49.022;9.338;2023-05-07T06:53:15;16.10;1.00
20231;DHT22;10274;49.022;9.338;2023-05-07T06:55:41;16.20;1.00
20231;DHT22;10274;49.022;9.338;2023-05-07T06:58:08;16.40;1.00
20231;DHT22;10274;49.022;9.338;2023-05-07T07:00:35;16.50;1.00
20231;DHT22;10274;49.022;9.338;2023-05-07T07:03:02;16.70;1.00
20231;DHT22;10274;49.022;9.338;2023-05-07T07:05:28;17.00;1.00
20231;DHT22;10274;49.022;9.338;2023-05-07T07:07:55;17.30;99.90
20231;DHT22;10274;49.022;9.338;2023-05-07T07:10:23;17.60;99.90
20231;DHT22;10274;49.022;9.338;2023-05-07T07:12:50;18.00;1.00
20231;DHT22;10274;49.022;9.338;2023-05-07T07:15:18;18.00;1.00
20231;DHT22;10274;49.022;9.338;2023-05-07T07:17:46;18.10;1.00
20231;DHT22;10274;49.022;9.338;2023-05-07T07:20:13;18.50;1.00
20231;DHT22;10274;49.022;9.338;2023-05-07T07:22:40;18.80;1.00
20231;DHT22;10274;49.022;9.338;2023-05-07T07:25:07;19.10;99.90
20231;DHT22;10274;49.022;9.338;2023-05-07T07:27:35;19.40;1.00
20231;DHT22;10274;49.022;9.338;2023-05-07T07:30:03;19.60;99.90
20231;DHT22;10274;49.022;9.338;2023-05-07T07:32:29;19.80;1.00
20231;DHT22;10274;49.022;9.338;2023-05-07T07:34:57;19.80;1.00
20231;DHT22;10274;49.022;9.338;2023-05-07T07:37:24;20.00;1.00
20231;DHT22;10274;49.022;9.338;2023-05-07T07:39:51;20.20;1.00
20231;DHT22;10274;49.022;9.338;2023-05-07T07:42:17;20.50;1.00
20231;DHT22;10274;49.022;9.338;2023-05-07T07:44:46;20.60;1.00
20231;DHT22;10274;49.022;9.338;2023-05-07T07:47:12;20.60;1.00
20231;DHT22;10274;49.022;9.338;2023-05-07T07:49:39;20.80;99.90
20231;DHT22;10274;49.022;9.338;2023-05-07T07:52:06;20.90;99.90
20231;DHT22;10274;49.022;9.338;2023-05-07T07:54:32;21.10;99.90
20231;DHT22;10274;49.022;9.338;2023-05-07T07:56:59;21.40;99.90
20231;DHT22;10274;49.022;9.338;2023-05-07T07:59:26;21.60;99.90
20231;DHT22;10274;49.022;9.338;2023-05-07T08:01:54;21.60;30.00
20231;DHT22;10274;49.022;9.338;2023-05-07T08:04:22;21.60;1.00
20231;DHT22;10274;49.022;9.338;2023-05-07T08:06:49;21.50;66.60
20231;DHT22;10274;49.022;9.338;2023-05-07T08:09:15;21.30;1.00
20231;DHT22;10274;49.022;9.338;2023-05-07T08:11:42;21.10;1.00
20231;DHT22;10274;49.022;9.338;2023-05-07T08:14:09;21.20;1.00
20231;DHT22;10274;49.022;9.338;2023-05-07T08:16:35;21.60;99.90
20231;DHT22;10274;49.022;9.338;2023-05-07T08:19:03;21.70;1.00
20231;DHT22;10274;49.022;9.338;2023-05-07T08:21:31;21.80;1.00
20231;DHT22;10274;49.022;9.338;2023-05-07T08:23:58;21.90;1.00
20231;DHT22;10274;49.022;9.338;2023-05-07T08:26:24;22.00;1.00
20231;DHT22;10274;49.022;9.338;2023-05-07T08:28:51;22.20;1.00
20231;DHT22;10274;49.022;9.338;2023-05-07T08:31:18;22.40;1.00
20231;DHT22;10274;49.022;9.338;2023-05-07T08:33:44;23.50;1.00
20231;DHT22;10274;49.022;9.338;2023-05-07T08:36:12;24.20;99.90
20231;DHT22;10274;49.022;9.338;2023-05-07T08:38:39;24.70;99.90
20231;DHT22;10274;49.022;9.338;2023-05-07T08:41:10;25.00;99.90
20231;DHT22;10274;49.022;9.338;2023-05-07T08:43:38;25.40;99.90
20231;DHT22;10274;49.022;9.338;2023-05-07T08:46:09;26.30;99.90
20231;DHT22;10274;49.022;9.338;2023-05-07T08:48:36;26.10;45.40
20231;DHT22;10274;49.022;9.338;2023-05-07T08:51:03;25.90;30.80
20231;DHT22;10274;49.022;9.338;2023-05-07T08:53:31;25.40;1.00
20231;DHT22;10274;49.022;9.338;2023-05-07T08:55:59;26.10;1.00
20231;DHT22;10274;49.022;9.338;2023-05-07T08:58:26;26.30;1.00
20231;DHT22;10274;49.022;9.338;2023-05-07T09:00:53;25.80;1.00
20231;DHT22;10274;49.022;9.338;2023-05-07T09:03:20;25.60;1.00
20231;DHT22;10274;49.022;9.338;2023-05-07T09:05:46;25.90;1.00
20231;DHT22;10274;49.022;9.338;2023-05-07T09:08:15;25.40;1.00
20231;DHT22;10274;49.022;9.338;2023-05-07T09:10:44;24.80;1.00
20231;DHT22;10274;49.022;9.338;2023-05-07T09:13:11;24.90;1.00
20231;DHT22;10274;49.022;9.338;2023-05-07T09:15:39;25.40;1.00
20231;DHT22;10274;49.022;9.338;2023-05-07T09:18:06;26.00;1.00
20231;DHT22;10274;49.022;9.338;2023-05-07T09:20:33;27.10;1.00
20231;DHT22;10274;49.022;9.338;2023-05-07T09:22:59;26.50;1.00
20231;DHT22;10274;49.022;9.338;2023-05-07T09:25:30;26.10;1.00
20231;DHT22;10274;49.022;9.338;2023-05-07T09:27:59;24.90;1.00
20231;DHT22;10274;49.022;9.338;2023-05-07T09:30:28;24.80;1.00
20231;DHT22;10274;49.022;9.338;2023-05-07T09:32:55;25.30;1.00
20231;DHT22;10274;49.022;9.338;2023-05-07T09:35:22;25.50;1.00
20231;DHT22;10274;49.022;9.338;2023-05-07T09:37:52;25.90;1.00
20231;DHT22;10274;49.022;9.338;2023-05-07T09:40:22;25.80;1.00
20231;DHT22;10274;49.022;9.338;2023-05-07T09:42:49;25.60;1.00
20231;DHT22;10274;49.022;9.338;2023-05-07T09:45:21;25.30;1.00
20231;DHT22;10274;49.022;9.338;2023-05-07T09:47:48;25.50;1.00
20231;DHT22;10274;49.022;9.338;2023-05-07T09:50:18;25.90;1.00
20231;DHT22;10274;49.022;9.338;2023-05-07T09:52:45;26.20;1.00
20231;DHT22;10274;49.022;9.338;2023-05-07T09:55:13;26.40;1.00
20231;DHT22;10274;49.022;9.338;2023-05-07T09:57:40;27.00;1.00
20231;DHT22;10274;49.022;9.338;2023-05-07T10:00:09;26.50;1.00
20231;DHT22;10274;49.022;9.338;2023-05-07T10:02:39;26.80;1.00
20231;DHT22;10274;49.022;9.338;2023-05-07T10:05:12;27.00;1.00
20231;DHT22;10274;49.022;9.338;2023-05-07T10:07:39;27.70;1.00
20231;DHT22;10274;49.022;9.338;2023-05-07T10:10:07;27.40;1.00
20231;DHT22;10274;49.022;9.338;2023-05-07T10:12:35;27.70;1.00
20231;DHT22;10274;49.022;9.338;2023-05-07T10:15:06;27.20;1.00
20231;DHT22;10274;49.022;9.338;2023-05-07T10:17:34;27.30;1.00
20231;DHT22;10274;49.022;9.338;2023-05-07T10:20:03;27.60;1.00
20231;DHT22;10274;49.022;9.338;2023-05-07T10:22:34;27.60;1.00
20231;DHT22;10274;49.022;9.338;2023-05-07T10:25:06;27.40;1.00
20231;DHT22;10274;49.022;9.338;2023-05-07T10:27:36;27.20;1.00
20231;DHT22;10274;49.022;9.338;2023-05-07T10:30:14;26.90;1.00
20231;DHT22;10274;49.022;9.338;2023-05-07T10:32:46;27.10;1.00
20231;DHT22;10274;49.022;9.338;2023-05-07T10:35:17;27.40;1.00
20231;DHT22;10274;49.022;9.338;2023-05-07T10:37:45;27.90;1.00
20231;DHT22;10274;49.022;9.338;2023-05-07T10:40:13;28.40;1.00
20231;DHT22;10274;49.022;9.338;2023-05-07T10:42:53;28.50;1.00
20231;DHT22;10274;49.022;9.338;2023-05-07T10:45:21;28.00;1.00
20231;DHT22;10274;49.022;9.338;2023-05-07T10:48:06;27.80;1.00
20231;DHT22;10274;49.022;9.338;2023-05-07T10:50:34;28.50;1.00
20231;DHT22;10274;49.022;9.338;2023-05-07T10:53:21;27.70;1.00
20231;DHT22;10274;49.022;9.338;2023-05-07T10:55:50;27.70;1.00
20231;DHT22;10274;49.022;9.338;2023-05-07T10:58:23;28.40;1.00
20231;DHT22;10274;49.022;9.338;2023-05-07T11:00:55;28.30;1.00
20231;DHT22;10274;49.022;9.338;2023-05-07T11:03:21;28.10;1.00
20231;DHT22;10274;49.022;9.338;2023-05-07T11:06:09;28.00;1.00
20231;DHT22;10274;49.022;9.338;2023-05-07T11:09:00;28.20;1.00
20231;DHT22;10274;49.022;9.338;2023-05-07T11:11:45;28.20;1.00
20231;DHT22;10274;49.022;9.338;2023-05-07T11:14:13;28.30;1.00
20231;DHT22;10274;49.022;9.338;2023-05-07T11:16:41;29.00;1.00
20231;DHT22;10274;49.022;9.338;2023-05-07T11:21:38;28.40;1.00
20231;DHT22;10274;49.022;9.338;2023-05-07T11:24:06;28.30;1.00
20231;DHT22;10274;49.022;9.338;2023-05-07T11:26:44;28.20;1.00
20231;DHT22;10274;49.022;9.338;2023-05-07T11:29:12;28.60;1.00
20231;DHT22;10274;49.022;9.338;2023-05-07T11:31:40;28.40;1.00
20231;DHT22;10274;49.022;9.338;2023-05-07T11:34:06;28.50;1.00
20231;DHT22;10274;49.022;9.338;2023-05-07T11:36:34;28.30;1.00
20231;DHT22;10274;49.022;9.338;2023-05-07T11:39:02;27.90;1.00
20231;DHT22;10274;49.022;9.338;2023-05-07T11:41:35;27.30;1.00
20231;DHT22;10274;49.022;9.338;2023-05-07T11:44:02;27.40;1.00
20231;DHT22;10274;49.022;9.338;2023-05-07T11:46:29;27.70;1.00
20231;DHT22;10274;49.022;9.338;2023-05-07T11:48:56;27.30;1.00
20231;DHT22;10274;49.022;9.338;2023-05-07T11:51:24;26.70;1.00
20231;DHT22;10274;49.022;9.338;2023-05-07T11:53:52;26.50;1.00
20231;DHT22;10274;49.022;9.338;2023-05-07T11:56:21;26.10;1.00
20231;DHT22;10274;49.022;9.338;2023-05-07T11:58:48;26.00;1.00
20231;DHT22;10274;49.022;9.338;2023-05-07T12:01:16;25.70;1.00
20231;DHT22;10274;49.022;9.338;2023-05-07T12:03:44;25.20;1.00
20231;DHT22;10274;49.022;9.338;2023-05-07T12:06:12;25.30;1.00
20231;DHT22;10274;49.022;9.338;2023-05-07T12:08:41;25.20;1.00
20231;DHT22;10274;49.022;9.338;2023-05-07T12:11:09;25.40;1.00
20231;DHT22;10274;49.022;9.338;2023-05-07T12:13:38;25.80;1.00
20231;DHT22;10274;49.022;9.338;2023-05-07T12:16:06;26.00;1.00
20231;DHT22;10274;49.022;9.338;2023-05-07T12:18:34;26.40;1.00
20231;DHT22;10274;49.022;9.338;2023-05-07T12:21:01;26.60;1.00
20231;DHT22;10274;49.022;9.338;2023-05-07T12:23:29;26.50;1.00
20231;DHT22;10274;49.022;9.338;2023-05-07T12:25:56;26.50;1.00
20231;DHT22;10274;49.022;9.338;2023-05-07T12:28:22;26.30;1.00
20231;DHT22;10274;49.022;9.338;2023-05-07T12:30:51;25.80;1.00
20231;DHT22;10274;49.022;9.338;2023-05-07T12:33:19;25.80;1.00
20231;DHT22;10274;49.022;9.338;2023-05-07T12:35:50;25.90;1.00
20231;DHT22;10274;49.022;9.338;2023-05-07T12:38:17;26.20;1.00
20231;DHT22;10274;49.022;9.338;2023-05-07T12:40:46;26.30;1.00
20231;DHT22;10274;49.022;9.338;2023-05-07T12:43:16;26.00;1.00
20231;DHT22;10274;49.022;9.338;2023-05-07T12:45:44;25.70;1.00
20231;DHT22;10274;49.022;9.338;2023-05-07T12:48:12;26.00;1.00
20231;DHT22;10274;49.022;9.338;2023-05-07T12:50:39;25.70;1.00
20231;DHT22;10274;49.022;9.338;2023-05-07T12:53:07;25.60;1.00
20231;DHT22;10274;49.022;9.338;2023-05-07T12:55:41;25.50;1.00
20231;DHT22;10274;49.022;9.338;2023-05-07T12:58:07;25.50;1.00
20231;DHT22;10274;49.022;9.338;2023-05-07T13:00:35;25.20;1.00
20231;DHT22;10274;49.022;9.338;2023-05-07T13:03:02;24.90;1.00
20231;DHT22;10274;49.022;9.338;2023-05-07T13:05:30;24.80;1.00
20231;DHT22;10274;49.022;9.338;2023-05-07T13:07:57;24.50;1.00
20231;DHT22;10274;49.022;9.338;2023-05-07T13:10:25;24.50;1.00
20231;DHT22;10274;49.022;9.338;2023-05-07T13:12:52;24.70;1.00
20231;DHT22;10274;49.022;9.338;2023-05-07T13:15:19;24.40;1.00
20231;DHT22;10274;49.022;9.338;2023-05-07T13:17:46;24.20;1.00
20231;DHT22;10274;49.022;9.338;2023-05-07T13:20:12;23.70;1.00
20231;DHT22;10274;49.022;9.338;2023-05-07T13:22:41;23.60;1.00
20231;DHT22;10274;49.022;9.338;2023-05-07T13:25:08;23.40;1.00
20231;DHT22;10274;49.022;9.338;2023-05-07T13:27:35;23.30;1.00
20231;DHT22;10274;49.022;9.338;2023-05-07T13:30:03;23.20;1.00
20231;DHT22;10274;49.022;9.338;2023-05-07T13:32:30;23.00;1.00
20231;DHT22;10274;49.022;9.338;2023-05-07T13:34:57;22.80;1.00
20231;DHT22;10274;49.022;9.338;2023-05-07T13:37:24;22.50;1.00
20231;DHT22;10274;49.022;9.338;2023-05-07T13:39:52;22.20;1.00
20231;DHT22;10274;49.022;9.338;2023-05-07T13:42:18;22.00;1.00
20231;DHT22;10274;49.022;9.338;2023-05-07T13:44:45;22.00;1.00
20231;DHT22;10274;49.022;9.338;2023-05-07T13:47:12;21.90;1.00
20231;DHT22;10274;49.022;9.338;2023-05-07T13:49:38;21.90;1.00
20231;DHT22;10274;49.022;9.338;2023-05-07T13:52:05;21.90;1.00
20231;DHT22;10274;49.022;9.338;2023-05-07T13:54:32;21.80;1.00
20231;DHT22;10274;49.022;9.338;2023-05-07T13:57:00;21.70;1.00
20231;DHT22;10274;49.022;9.338;2023-05-07T13:59:27;21.00;1.00
20231;DHT22;10274;49.022;9.338;2023-05-07T14:01:53;20.60;99.90
20231;DHT22;10274;49.022;9.338;2023-05-07T14:04:21;20.20;1.00
20231;DHT22;10274;49.022;9.338;2023-05-07T14:06:47;20.10;1.00
20231;DHT22;10274;49.022;9.338;2023-05-07T14:09:14;20.00;99.90
20231;DHT22;10274;49.022;9.338;2023-05-07T14:11:41;19.90;1.00
20231;DHT22;10274;49.022;9.338;2023-05-07T14:14:09;19.80;1.00
20231;DHT22;10274;49.022;9.338;2023-05-07T14:16:37;19.40;1.00
20231;DHT22;10274;49.022;9.338;2023-05-07T14:19:03;19.20;99.90
20231;DHT22;10274;49.022;9.338;2023-05-07T14:21:30;19.10;1.00
20231;DHT22;10274;49.022;9.338;2023-05-07T14:23:57;18.70;1.00
20231;DHT22;10274;49.022;9.338;2023-05-07T14:26:25;18.30;99.90
20231;DHT22;10274;49.022;9.338;2023-05-07T14:28:52;18.00;1.00
20231;DHT22;10274;49.022;9.338;2023-05-07T14:31:21;17.90;1.00
20231;DHT22;10274;49.022;9.338;2023-05-07T14:33:48;17.70;1.00
20231;DHT22;10274;49.022;9.338;2023-05-07T14:36:15;17.50;1.00
20231;DHT22;10274;49.022;9.338;2023-05-07T14:38:42;17.30;1.00
20231;DHT22;10274;49.022;9.338;2023-05-07T14:41:09;17.20;1.00
20231;DHT22;10274;49.022;9.338;2023-05-07T14:43:35;17.20;1.00
20231;DHT22;10274;49.022;9.338;2023-05-07T14:46:02;17.30;1.00
20231;DHT22;10274;49.022;9.338;2023-05-07T14:48:30;17.50;1.00
20231;DHT22;10274;49.022;9.338;2023-05-07T14:50:57;17.50;56.80
20231;DHT22;10274;49.022;9.338;2023-05-07T14:53:23;17.40;1.00
20231;DHT22;10274;49.022;9.338;2023-05-07T14:55:50;17.10;43.70
20231;DHT22;10274;49.022;9.338;2023-05-07T14:58:17;16.90;1.00
20231;DHT22;10274;49.022;9.338;2023-05-07T15:00:43;16.90;24.50
20231;DHT22;10274;49.022;9.338;2023-05-07T15:03:10;16.70;96.60
20231;DHT22;10274;49.022;9.338;2023-05-07T15:05:39;16.80;99.90
20231;DHT22;10274;49.022;9.338;2023-05-07T15:08:06;16.80;99.90
20231;DHT22;10274;49.022;9.338;2023-05-07T15:10:35;16.90;99.90
20231;DHT22;10274;49.022;9.338;2023-05-07T15:13:06;16.90;99.90
20231;DHT22;10274;49.022;9.338;2023-05-07T15:15:33;17.00;99.90
20231;DHT22;10274;49.022;9.338;2023-05-07T15:17:59;17.20;99.90
20231;DHT22;10274;49.022;9.338;2023-05-07T15:20:26;17.20;99.90
20231;DHT22;10274;49.022;9.338;2023-05-07T15:22:54;17.20;99.90
20231;DHT22;10274;49.022;9.338;2023-05-07T15:25:22;17.20;99.90
20231;DHT22;10274;49.022;9.338;2023-05-07T15:27:48;17.20;99.90
20231;DHT22;10274;49.022;9.338;2023-05-07T15:30:15;17.00;99.90
20231;DHT22;10274;49.022;9.338;2023-05-07T15:32:42;16.70;99.90
20231;DHT22;10274;49.022;9.338;2023-05-07T15:35:09;16.60;99.90
20231;DHT22;10274;49.022;9.338;2023-05-07T15:37:36;16.70;99.90
20231;DHT22;10274;49.022;9.338;2023-05-07T15:40:05;17.00;99.90
20231;DHT22;10274;49.022;9.338;2023-05-07T15:42:32;17.20;99.90
20231;DHT22;10274;49.022;9.338;2023-05-07T15:45:00;17.20;99.90